New Ulm, MN

10:36 PM CST on November 21, 2017 (GMT -0600)
New Ulm Municipal

Weather History for KULM - November, 2013

Change the Weather History Date:

Sunday, November 17, 2013

  Actual Average Record
Temperature  
Mean Temperature 39 °F -  
Max Temperature 46 °F 42 °F 71 °F (1953)
Min Temperature 30 °F 25 °F -3 °F (1959)
Degree Days  
Heating Degree Days 26    
Moisture  
Dew Point 36 °F    
Average Humidity 89    
Maximum Humidity 100    
Minimum Humidity 71    
Precipitation  
Precipitation 0.00 in - - ()
Sea Level Pressure  
Sea Level Pressure 29.54 in    
Wind  
Wind Speed 13 mph (WNW)    
Max Wind Speed 29 mph    
Max Gust Speed 38 mph    
Visibility 10 miles    
Events      
Averages and records for this station are not official NWS values.
T = Trace of Precipitation, MM = Missing Value Source: NWS Daily Summary

Daily Weather History Graph

Daily Weather History Graph

Search for Another Location

Airport or City:

Trip Planner

Search our weather history database for the weather conditions in past years. The results will help you decide how hot, cold, wet, or windy it might be!

Date:

Astronomy

Nov. 17, 2013 Rise Set
Actual Time 7:16 AM CST 4:48 PM CST
Civil Twilight 6:45 AM CST 5:20 PM CST
Nautical Twilight 6:09 AM CST 5:55 PM CST
Astronomical Twilight 5:35 AM CST 6:29 PM CST
Moon 5:06 PM CST (11/17) 7:11 AM CST (11/17)
Length of Visible Light 10h 35m
Length of Day
9h 31m
Full, 100% of the Moon is Illuminated
Nov 17
Full
Nov 25
Last Quarter
Dec 2
New
Dec 9
First Quarter
Dec 17
Full

Hourly Weather History & Observations

Time (CST) Temp. Windchill Dew Point Humidity Pressure Visibility Wind Dir Wind Speed Gust Speed Precip Events Conditions
12:13 AM 42.8 °F 37.0 °F 37.4 °F 81% 29.33 in 10.0 mi WSW 10.4 mph - N/A   Clear
12:33 AM 41.0 °F 35.2 °F 37.4 °F 87% 29.33 in 10.0 mi WSW 9.2 mph - N/A   Clear
12:53 AM 41.0 °F 35.8 °F 37.4 °F 87% 29.33 in 10.0 mi WSW 8.1 mph - N/A   Clear
1:13 AM 39.2 °F 33.6 °F 37.4 °F 93% 29.32 in 10.0 mi West 8.1 mph - N/A   Clear
1:33 AM 39.2 °F 35.9 °F 37.4 °F 93% 29.32 in 10.0 mi WSW 4.6 mph - N/A   Clear
1:53 AM 37.4 °F 32.1 °F 37.4 °F 100% 29.32 in 10.0 mi SW 6.9 mph - N/A   Clear
2:13 AM 37.4 °F 31.4 °F 37.4 °F 100% 29.33 in 10.0 mi SSW 8.1 mph - N/A   Clear
2:33 AM 39.2 °F 33.6 °F 37.4 °F 93% 29.34 in 10.0 mi SW 8.1 mph - N/A   Clear
2:53 AM 39.2 °F 33.6 °F 37.4 °F 93% 29.34 in 10.0 mi SW 8.1 mph - N/A   Clear
3:13 AM 39.2 °F 33.6 °F 37.4 °F 93% 29.34 in 10.0 mi WSW 8.1 mph - N/A   Clear
3:33 AM 39.2 °F 33.6 °F 39.2 °F 100% 29.35 in 10.0 mi WSW 8.1 mph - N/A   Clear
3:53 AM 39.2 °F 34.2 °F 39.2 °F 100% 29.36 in 10.0 mi SW 6.9 mph - N/A   Scattered Clouds
4:13 AM 39.2 °F 34.2 °F 39.2 °F 100% 29.36 in 10.0 mi West 6.9 mph - N/A   Scattered Clouds
4:33 AM 39.2 °F 35.0 °F 39.2 °F 100% 29.36 in 10.0 mi WSW 5.8 mph - N/A   Clear
4:53 AM 39.2 °F 35.0 °F 39.2 °F 100% 29.37 in 10.0 mi West 5.8 mph - N/A   Clear
5:13 AM 39.2 °F 35.9 °F 39.2 °F 100% 29.36 in 7.0 mi West 4.6 mph - N/A   Clear
5:33 AM 39.2 °F 34.2 °F 39.2 °F 100% 29.36 in 7.0 mi WNW 6.9 mph - N/A   Clear
5:53 AM 39.2 °F 33.6 °F 39.2 °F 100% 29.36 in 5.0 mi NW 8.1 mph - N/A   Clear
6:13 AM 41.0 °F 34.7 °F 41.0 °F 100% 29.36 in 7.0 mi NW 10.4 mph - N/A   Clear
6:33 AM 41.0 °F 32.8 °F 41.0 °F 100% 29.34 in 7.0 mi NW 16.1 mph - N/A   Clear
6:53 AM 41.0 °F 32.8 °F 39.2 °F 93% 29.36 in 7.0 mi NW 16.1 mph - N/A   Clear
7:13 AM 39.2 °F 32.5 °F 39.2 °F 100% 29.38 in 10.0 mi NW 10.4 mph - N/A   Scattered Clouds
7:33 AM 39.2 °F 34.2 °F 39.2 °F 100% 29.38 in 10.0 mi NW 6.9 mph - N/A   Scattered Clouds
7:53 AM 39.2 °F 31.6 °F 39.2 °F 100% 29.39 in 10.0 mi NW 12.7 mph - N/A   Scattered Clouds
8:13 AM 39.2 °F 32.5 °F 39.2 °F 100% 29.40 in 10.0 mi WNW 10.4 mph - N/A   Clear
8:33 AM 39.2 °F 31.2 °F 39.2 °F 100% 29.41 in 10.0 mi NW 13.8 mph 17.3 mph N/A   Scattered Clouds
8:53 AM 39.2 °F 33.0 °F 39.2 °F 100% 29.41 in 10.0 mi WNW 9.2 mph - N/A   Clear
9:13 AM 39.2 °F 32.0 °F 39.2 °F 100% 29.42 in 10.0 mi WNW 11.5 mph - N/A   Clear
9:33 AM 39.2 °F 31.2 °F 39.2 °F 100% 29.42 in 10.0 mi WNW 13.8 mph 18.4 mph N/A   Clear
9:53 AM 39.2 °F 30.2 °F 39.2 °F 100% 29.42 in 10.0 mi NW 17.3 mph 21.9 mph N/A   Clear
10:13 AM 39.2 °F 30.2 °F 39.2 °F 100% 29.44 in 10.0 mi NW 17.3 mph - N/A   Clear
10:33 AM 39.2 °F 30.2 °F 39.2 °F 100% 29.44 in 10.0 mi NW 17.3 mph - N/A   Clear
10:53 AM 41.0 °F 33.1 °F 39.2 °F 93% 29.46 in 10.0 mi NW 15.0 mph - N/A   Scattered Clouds
11:13 AM 41.0 °F 33.5 °F 39.2 °F 93% 29.47 in 10.0 mi NW 13.8 mph 21.9 mph N/A   Scattered Clouds
11:33 AM 41.0 °F 33.1 °F 39.2 °F 93% 29.47 in 10.0 mi NW 15.0 mph 23.0 mph N/A   Scattered Clouds
11:53 AM 41.0 °F 31.4 °F 39.2 °F 93% 29.46 in 10.0 mi NW 21.9 mph - N/A   Scattered Clouds
12:13 PM 42.8 °F 34.5 °F 37.4 °F 81% 29.47 in 10.0 mi NW 18.4 mph 27.6 mph N/A   Scattered Clouds
12:32 PM 42.8 °F 32.9 °F 37.4 °F 81% 29.48 in 10.0 mi NW 26.5 mph 32.2 mph N/A   Scattered Clouds
12:53 PM 41.0 °F 30.9 °F 37.4 °F 87% 29.49 in 10.0 mi NW 24.2 mph 31.1 mph N/A   Scattered Clouds
1:13 PM 41.0 °F 31.4 °F 37.4 °F 87% 29.50 in 10.0 mi NW 21.9 mph 27.6 mph N/A   Mostly Cloudy
1:32 PM 41.0 °F 32.8 °F 37.4 °F 87% 29.52 in 10.0 mi NW 16.1 mph 23.0 mph N/A   Scattered Clouds
1:53 PM 44.6 °F 35.5 °F 37.4 °F 76% 29.51 in 10.0 mi NW 25.3 mph 31.1 mph N/A   Scattered Clouds
2:13 PM 44.6 °F 35.9 °F 37.4 °F 76% 29.53 in 10.0 mi WNW 23.0 mph 29.9 mph N/A   Scattered Clouds
2:32 PM 46.4 °F 39.2 °F 37.4 °F 71% 29.54 in 10.0 mi WNW 18.4 mph 23.0 mph N/A   Clear
2:53 PM 44.6 °F 36.6 °F 37.4 °F 76% 29.55 in 10.0 mi NW 19.6 mph 29.9 mph N/A   Clear
3:13 PM 44.6 °F 35.9 °F 37.4 °F 76% 29.57 in 10.0 mi NW 23.0 mph 26.5 mph N/A   Clear
3:32 PM 42.8 °F 32.7 °F 35.6 °F 76% 29.59 in 10.0 mi NW 27.6 mph 33.4 mph N/A   Clear
3:53 PM 42.8 °F 34.3 °F 35.6 °F 76% 29.60 in 10.0 mi NW 19.6 mph 31.1 mph N/A   Clear
4:13 PM 41.0 °F 32.5 °F 35.6 °F 81% 29.62 in 10.0 mi NW 17.3 mph - N/A   Clear
4:32 PM 39.2 °F 30.5 °F 35.6 °F 87% 29.64 in 10.0 mi NW 16.1 mph - N/A   Clear
4:53 PM 41.0 °F 31.6 °F 35.6 °F 81% 29.66 in 10.0 mi NW 20.7 mph 24.2 mph N/A   Scattered Clouds
5:13 PM 39.2 °F 29.3 °F 35.6 °F 87% 29.67 in 10.0 mi NW 20.7 mph 27.6 mph N/A   Mostly Cloudy
5:32 PM 39.2 °F 29.0 °F 33.8 °F 81% 29.70 in 10.0 mi NW 21.9 mph 29.9 mph N/A   Mostly Cloudy
5:53 PM 37.4 °F 27.2 °F 33.8 °F 87% 29.72 in 10.0 mi WNW 19.6 mph 33.4 mph N/A   Scattered Clouds
6:13 PM 37.4 °F 27.8 °F 33.8 °F 87% 29.73 in 10.0 mi WNW 17.3 mph - N/A   Clear
6:32 PM 37.4 °F 27.2 °F 32.0 °F 81% 29.75 in 10.0 mi WNW 19.6 mph - N/A   Scattered Clouds
6:53 PM 37.4 °F 27.5 °F 32.0 °F 81% 29.76 in 10.0 mi NW 18.4 mph 26.5 mph N/A   Mostly Cloudy
7:13 PM 35.6 °F 27.5 °F 30.2 °F 81% 29.76 in 10.0 mi NW 11.5 mph - N/A   Scattered Clouds
7:33 PM 35.6 °F 24.2 °F 30.2 °F 81% 29.78 in 10.0 mi NW 21.9 mph 29.9 mph N/A   Mostly Cloudy
7:53 PM 35.6 °F 24.5 °F 30.2 °F 81% 29.78 in 10.0 mi NW 20.7 mph 28.8 mph N/A   Overcast
8:13 PM 35.6 °F 24.2 °F 30.2 °F 81% 29.79 in 10.0 mi NW 21.9 mph 29.9 mph N/A   Mostly Cloudy
8:33 PM 33.8 °F 21.0 °F 30.2 °F 87% 29.80 in 10.0 mi NW 25.3 mph 31.1 mph N/A   Mostly Cloudy
8:53 PM 33.8 °F 21.6 °F 28.4 °F 81% 29.80 in 10.0 mi NW 23.0 mph 33.4 mph N/A   Mostly Cloudy
9:13 PM 33.8 °F 22.2 °F 28.4 °F 81% 29.82 in 10.0 mi NW 20.7 mph 25.3 mph N/A   Mostly Cloudy
9:33 PM 33.8 °F 21.6 °F 26.6 °F 75% 29.85 in 10.0 mi NW 23.0 mph 32.2 mph N/A   Scattered Clouds
9:53 PM 33.8 °F 22.2 °F 26.6 °F 75% 29.85 in 10.0 mi NW 20.7 mph 25.3 mph N/A   Scattered Clouds
10:13 PM 33.8 °F 20.3 °F 26.6 °F 75% 29.84 in 10.0 mi NW 28.8 mph 33.4 mph N/A   Mostly Cloudy
10:33 PM 32.0 °F 18.9 °F 26.6 °F 80% 29.86 in 10.0 mi NW 24.2 mph 38.0 mph N/A   Mostly Cloudy
10:53 PM 32.0 °F 21.2 °F 26.6 °F 80% 29.88 in 10.0 mi WNW 16.1 mph 27.6 mph N/A   Overcast
11:13 PM 32.0 °F 19.2 °F 26.6 °F 80% 29.88 in 10.0 mi NW 23.0 mph 28.8 mph N/A   Overcast
11:33 PM 32.0 °F 19.8 °F 26.6 °F 80% 29.89 in 10.0 mi NW 20.7 mph 32.2 mph N/A   Overcast
11:53 PM 30.2 °F 17.8 °F 26.6 °F 86% 29.90 in 10.0 mi NW 19.6 mph 28.8 mph N/A   Overcast